Time;durP1;ratioP1;P1;durP2;ratioP2;P2;SDS_P1;SDS_P2;PMS_P1;PMS_P2;Temp;Humidity;BMP_temperature;BMP_pressure;BME280_temperature;BME280_humidity;BME280_pressure;Samples;Min_cycle;Max_cycle;Signal;HPM_P1;HPM_P2
2022/08/20 12:23:20;;;;;;;;;;;26.60;57.70;;;;;;5063444;27;80191;-41
2022/08/20 12:25:45;;;;;;;;;;;26.60;57.60;;;;;;5064222;27;80241;-42
2022/08/20 12:28:11;;;;;;;;;;;26.60;56.70;;;;;;5064140;27;80528;-41
2022/08/20 12:30:37;;;;;;;;;;;26.70;57.20;;;;;;5064064;27;81426;-42
2022/08/20 12:33:02;;;;;;;;;;;26.80;57.20;;;;;;5062041;27;80789;-41
2022/08/20 12:35:28;;;;;;;;;;;26.80;57.00;;;;;;5062825;27;80967;-42
2022/08/20 12:37:54;;;;;;;;;;;26.90;57.90;;;;;;5063889;27;80635;-41
2022/08/20 12:40:23;;;;;;;;;;;27.00;58.80;;;;;;5063913;27;80302;-42
2022/08/20 12:42:49;;;;;;;;;;;27.00;60.00;;;;;;5065456;27;80845;-40
2022/08/20 12:45:15;;;;;;;;;;;27.00;58.70;;;;;;5062294;27;80042;-40
2022/08/20 12:47:42;;;;;;;;;;;27.10;58.60;;;;;;5062998;27;80685;-40
2022/08/20 12:50:09;;;;;;;;;;;27.20;57.10;;;;;;5063551;27;82705;-41
2022/08/20 12:52:35;;;;;;;;;;;27.30;58.00;;;;;;5063750;27;80198;-43
2022/08/20 12:55:01;;;;;;;;;;;27.30;54.90;;;;;;5063772;27;80530;-42
2022/08/20 12:57:31;;;;;;;;;;;27.30;55.40;;;;;;5063178;27;82646;-40
2022/08/20 12:59:59;;;;;;;;;;;27.30;54.90;;;;;;5063449;27;80372;-39
2022/08/20 13:02:24;;;;;;;;;;;27.20;56.10;;;;;;5058328;27;81441;-40
2022/08/20 13:04:50;;;;;;;;;;;27.30;55.70;;;;;;5064926;27;81427;-40
2022/08/20 13:07:15;;;;;;;;;;;27.20;52.20;;;;;;5059324;27;80708;-39
2022/08/20 13:09:41;;;;;;;;;;;27.20;53.80;;;;;;5061673;27;81313;-40
2022/08/20 13:12:07;;;;;;;;;;;27.30;53.50;;;;;;5061936;27;80458;-39
2022/08/20 13:14:33;;;;;;;;;;;27.30;53.80;;;;;;5061384;27;80727;-39
2022/08/20 13:16:59;;;;;;;;;;;27.30;55.00;;;;;;5061772;27;81509;-40
2022/08/20 13:19:26;;;;;;;;;;;27.20;56.20;;;;;;5061327;27;80182;-40
2022/08/20 13:21:52;;;;;;;;;;;27.20;54.90;;;;;;5061153;27;80619;-39
2022/08/20 13:24:18;;;;;;;;;;;27.20;56.20;;;;;;5061940;27;80997;-39
2022/08/20 13:26:43;;;;;;;;;;;27.20;54.00;;;;;;5065793;27;80666;-39
2022/08/20 13:29:09;;;;;;;;;;;27.30;56.30;;;;;;5062959;27;81268;-41
2022/08/20 13:31:34;;;;;;;;;;;27.30;56.30;;;;;;5063163;27;80323;-43
2022/08/20 13:33:59;;;;;;;;;;;27.50;56.00;;;;;;5053727;27;80903;-40
2022/08/20 13:36:25;;;;;;;;;;;27.50;56.40;;;;;;5049384;28;81685;-43
2022/08/20 13:38:51;;;;;;;;;;;27.50;57.40;;;;;;5049442;28;80356;-42
2022/08/20 13:41:17;;;;;;;;;;;27.60;56.60;;;;;;5049047;27;82295;-39
2022/08/20 13:43:42;;;;;;;;;;;27.40;56.80;;;;;;5049053;28;81711;-41
2022/08/20 13:46:08;;;;;;;;;;;27.30;57.80;;;;;;5049472;28;80403;-38
2022/08/20 13:48:33;;;;;;;;;;;27.40;58.20;;;;;;5051733;28;80612;-39
2022/08/20 13:50:59;;;;;;;;;;;27.40;58.90;;;;;;5049363;28;80510;-39
2022/08/20 13:53:25;;;;;;;;;;;27.40;58.60;;;;;;5049174;27;81214;-39
2022/08/20 13:55:50;;;;;;;;;;;27.30;58.30;;;;;;5048826;28;81383;-40
2022/08/20 13:58:16;;;;;;;;;;;27.30;58.50;;;;;;5048809;28;80390;-44
2022/08/20 14:00:43;;;;;;;;;;;27.30;58.30;;;;;;5049072;27;82446;-41
2022/08/20 14:03:08;;;;;;;;;;;27.40;58.50;;;;;;5048985;28;81157;-39
2022/08/20 14:05:34;;;;;;;;;;;27.30;58.60;;;;;;5049134;28;80220;-40
2022/08/20 14:08:11;;;;;;;;;;;27.20;58.50;;;;;;5049354;28;81389;-39
2022/08/20 14:10:37;;;;;;;;;;;27.20;57.60;;;;;;5051668;28;81257;-39
2022/08/20 14:13:02;;;;;;;;;;;27.20;56.90;;;;;;5048533;27;81758;-41
2022/08/20 14:15:28;;;;;;;;;;;27.10;56.10;;;;;;5048743;28;81298;-38
2022/08/20 14:17:55;;;;;;;;;;;26.90;56.10;;;;;;5048983;28;80329;-41
2022/08/20 14:20:22;;;;;;;;;;;26.90;56.30;;;;;;5047792;28;80513;-39
2022/08/20 14:22:48;;;;;;;;;;;26.80;56.30;;;;;;5047614;28;82972;-38
2022/08/20 14:25:14;;;;;;;;;;;26.70;56.80;;;;;;5048840;28;80326;-38
2022/08/20 14:27:40;;;;;;;;;;;26.70;58.70;;;;;;5047485;27;80973;-38
2022/08/20 14:30:07;;;;;;;;;;;26.60;61.00;;;;;;5048367;28;81255;-37
2022/08/20 14:32:33;;;;;;;;;;;26.50;61.20;;;;;;5050662;28;80365;-36
2022/08/20 14:34:59;;;;;;;;;;;26.50;61.60;;;;;;5048540;28;80363;-41
2022/08/20 14:37:26;;;;;;;;;;;26.50;62.20;;;;;;5048673;28;80306;-39
2022/08/20 14:39:52;;;;;;;;;;;26.50;62.20;;;;;;5048644;27;80244;-41
2022/08/20 14:42:19;;;;;;;;;;;26.50;64.00;;;;;;5048137;28;80226;-42
2022/08/20 14:44:44;;;;;;;;;;;26.50;63.00;;;;;;5047612;27;80319;-38
2022/08/20 14:47:13;;;;;;;;;;;26.50;62.70;;;;;;5046815;28;80692;-38
2022/08/20 14:49:38;;;;;;;;;;;26.50;62.70;;;;;;5047891;28;82528;-37
2022/08/20 14:52:04;;;;;;;;;;;26.60;62.40;;;;;;5051012;28;80354;-38
2022/08/20 14:54:30;;;;;;;;;;;26.70;62.10;;;;;;5048521;28;81345;-38
2022/08/20 14:56:59;;;;;;;;;;;26.70;61.80;;;;;;5048274;28;80141;-38
2022/08/20 14:59:24;;;;;;;;;;;26.80;61.60;;;;;;5048650;27;80535;-38
2022/08/20 15:01:50;;;;;;;;;;;26.80;61.30;;;;;;5048222;28;80493;-38
2022/08/20 15:04:18;;;;;;;;;;;26.80;61.10;;;;;;5048474;28;80556;-37
2022/08/20 15:06:46;;;;;;;;;;;26.80;61.10;;;;;;5048283;28;82316;-38
2022/08/20 15:09:11;;;;;;;;;;;26.80;60.90;;;;;;5048169;28;81409;-38
2022/08/20 15:11:38;;;;;;;;;;;26.80;60.70;;;;;;5047928;28;80356;-38
2022/08/20 15:14:04;;;;;;;;;;;26.80;60.50;;;;;;5050799;27;81163;-37
2022/08/20 15:16:30;;;;;;;;;;;26.80;60.40;;;;;;5048223;28;80131;-37
2022/08/20 15:18:55;;;;;;;;;;;26.80;60.30;;;;;;5048245;27;80785;-38
2022/08/20 15:21:21;;;;;;;;;;;26.80;60.10;;;;;;5047438;28;81284;-37
2022/08/20 15:23:47;;;;;;;;;;;26.90;60.10;;;;;;5048270;28;80211;-37
2022/08/20 15:26:13;;;;;;;;;;;26.90;60.00;;;;;;5047753;27;80718;-38
2022/08/20 15:28:39;;;;;;;;;;;26.90;59.90;;;;;;5047887;28;81349;-37
2022/08/20 15:31:09;;;;;;;;;;;26.90;59.90;;;;;;5048005;28;80216;-37
2022/08/20 15:33:34;;;;;;;;;;;26.90;59.90;;;;;;5048027;28;80883;-38
2022/08/20 15:36:00;;;;;;;;;;;26.90;59.80;;;;;;5050620;28;81400;-38
2022/08/20 15:38:25;;;;;;;;;;;26.90;59.70;;;;;;5047590;27;81278;-37
2022/08/20 15:40:51;;;;;;;;;;;26.90;59.70;;;;;;5047689;28;81397;-37
2022/08/20 15:43:17;;;;;;;;;;;26.90;59.60;;;;;;5047947;28;80276;-37
2022/08/20 15:45:42;;;;;;;;;;;26.90;59.50;;;;;;5047718;27;81254;-38
2022/08/20 15:48:13;;;;;;;;;;;26.90;59.50;;;;;;5047514;28;81159;-38
2022/08/20 15:51:17;;;;;;;;;;;27.00;59.50;;;;;;5047630;28;80850;-37
2022/08/20 15:54:09;;;;;;;;;;;27.00;59.40;;;;;;5024691;28;80978;-38
2022/08/20 15:56:34;;;;;;;;;;;27.00;59.40;;;;;;5021401;28;80517;-37
2022/08/20 15:59:00;;;;;;;;;;;27.00;59.30;;;;;;5041849;27;80354;-37
2022/08/20 16:01:37;;;;;;;;;;;27.00;59.30;;;;;;5047452;28;81681;-38
2022/08/20 16:04:08;;;;;;;;;;;27.00;59.30;;;;;;5047337;28;80173;-38
2022/08/20 16:06:35;;;;;;;;;;;27.00;59.20;;;;;;5047613;28;80629;-38
2022/08/20 16:09:13;;;;;;;;;;;27.00;59.10;;;;;;5047019;28;82628;-37
2022/08/20 16:11:47;;;;;;;;;;;27.00;59.10;;;;;;5047160;28;80322;-38
2022/08/20 16:14:16;;;;;;;;;;;27.00;59.10;;;;;;5047434;28;80794;-38
2022/08/20 16:16:43;;;;;;;;;;;27.00;59.10;;;;;;5047091;28;81599;-37
2022/08/20 16:19:12;;;;;;;;;;;27.00;59.10;;;;;;5047200;28;80311;-37
2022/08/20 16:21:40;;;;;;;;;;;27.00;59.00;;;;;;5049064;27;80603;-38
2022/08/20 16:24:06;;;;;;;;;;;27.00;59.00;;;;;;5047051;28;80339;-37
2022/08/20 16:26:32;;;;;;;;;;;27.00;59.00;;;;;;5046917;27;81800;-37
2022/08/20 16:29:12;;;;;;;;;;;26.90;58.90;;;;;;5045733;28;84551;-37
2022/08/20 16:31:48;;;;;;;;;;;27.00;59.00;;;;;;5046454;28;81429;-37
2022/08/20 16:34:28;;;;;;;;;;;27.00;58.90;;;;;;5046232;27;82136;-38
2022/08/20 16:37:10;;;;;;;;;;;27.00;58.90;;;;;;5045616;28;82266;-38
2022/08/20 16:39:44;;;;;;;;;;;26.90;58.80;;;;;;5045160;28;82888;-38
2022/08/20 16:42:10;;;;;;;;;;;27.00;58.90;;;;;;5048455;27;83331;-38
2022/08/20 16:44:38;;;;;;;;;;;26.90;58.80;;;;;;5045885;28;82257;-38
2022/08/20 16:47:15;;;;;;;;;;;27.00;58.90;;;;;;5045653;27;84109;-38
2022/08/20 16:49:47;;;;;;;;;;;27.00;58.90;;;;;;5044901;28;84356;-38
2022/08/20 16:52:12;;;;;;;;;;;26.90;58.70;;;;;;5045764;28;81924;-38
2022/08/20 16:54:41;;;;;;;;;;;26.90;58.80;;;;;;5045692;28;82495;-38
2022/08/20 16:57:06;;;;;;;;;;;26.90;58.80;;;;;;5045791;28;82249;-38
2022/08/20 16:59:32;;;;;;;;;;;26.90;58.70;;;;;;5045726;28;82002;-38
2022/08/20 17:02:06;;;;;;;;;;;26.90;58.70;;;;;;5045530;27;82367;-38
2022/08/20 17:04:31;;;;;;;;;;;26.90;58.80;;;;;;5047399;28;84999;-37
2022/08/20 17:06:59;;;;;;;;;;;26.90;58.80;;;;;;5045626;27;83322;-38
2022/08/20 17:09:36;;;;;;;;;;;26.90;58.80;;;;;;5047591;27;82273;-38
2022/08/20 17:12:12;;;;;;;;;;;26.90;58.80;;;;;;5048731;28;82097;-38
2022/08/20 17:14:45;;;;;;;;;;;26.80;58.70;;;;;;5048722;27;84241;-37
2022/08/20 17:17:30;;;;;;;;;;;26.80;58.70;;;;;;5048691;28;82905;-37
2022/08/20 17:19:57;;;;;;;;;;;26.80;58.70;;;;;;5049123;27;82044;-38
2022/08/20 17:22:24;;;;;;;;;;;26.80;58.70;;;;;;5048686;27;82934;-38
2022/08/20 17:24:50;;;;;;;;;;;26.80;58.70;;;;;;5048278;28;85188;-37
2022/08/20 17:27:27;;;;;;;;;;;26.80;58.60;;;;;;5051361;28;82171;-38
2022/08/20 17:29:54;;;;;;;;;;;26.80;58.60;;;;;;5048047;28;83852;-38
2022/08/20 17:32:25;;;;;;;;;;;26.80;58.50;;;;;;5048615;28;82025;-38
2022/08/20 17:34:53;;;;;;;;;;;26.80;58.50;;;;;;5048542;27;81969;-38
2022/08/20 17:37:22;;;;;;;;;;;26.80;58.60;;;;;;5048271;28;84471;-38
2022/08/20 17:39:50;;;;;;;;;;;26.80;58.50;;;;;;5048366;28;81899;-38
2022/08/20 17:42:23;;;;;;;;;;;26.80;58.60;;;;;;5048024;27;83837;-37
2022/08/20 17:44:50;;;;;;;;;;;26.80;58.60;;;;;;5048280;28;85063;-38
2022/08/20 17:47:16;;;;;;;;;;;26.80;58.50;;;;;;5048950;28;81180;-41
2022/08/20 17:49:45;;;;;;;;;;;26.70;58.60;;;;;;5049709;28;81966;-37
2022/08/20 17:52:15;;;;;;;;;;;26.60;58.80;;;;;;5047974;28;82011;-37
2022/08/20 17:54:42;;;;;;;;;;;26.70;58.80;;;;;;5047585;28;82912;-37
2022/08/20 17:57:12;;;;;;;;;;;26.80;58.80;;;;;;5048383;27;83099;-37
2022/08/20 17:59:39;;;;;;;;;;;26.80;59.10;;;;;;5048391;27;81976;-37
2022/08/20 18:02:06;;;;;;;;;;;26.70;59.10;;;;;;5047999;27;83785;-37
2022/08/20 18:04:32;;;;;;;;;;;26.70;59.10;;;;;;5048116;27;82254;-37
2022/08/20 18:07:01;;;;;;;;;;;26.70;58.90;;;;;;5048327;28;82025;-37
2022/08/20 18:09:26;;;;;;;;;;;26.80;58.90;;;;;;5047777;27;84305;-37
2022/08/20 18:12:10;;;;;;;;;;;26.70;58.10;;;;;;5051188;28;82170;-37
2022/08/20 18:14:54;;;;;;;;;;;26.50;57.70;;;;;;5048133;27;81990;-39
2022/08/20 18:17:26;;;;;;;;;;;26.40;58.40;;;;;;5047933;27;82321;-37
2022/08/20 18:20:10;;;;;;;;;;;26.50;58.70;;;;;;5045782;28;82984;-40
2022/08/20 18:22:47;;;;;;;;;;;26.50;58.70;;;;;;5047493;27;83144;-38
2022/08/20 18:25:25;;;;;;;;;;;26.60;58.50;;;;;;5047532;28;85405;-39
2022/08/20 18:27:52;;;;;;;;;;;26.60;58.40;;;;;;5047836;28;81903;-40
2022/08/20 18:30:21;;;;;;;;;;;26.70;58.50;;;;;;5047553;28;83884;-39
2022/08/20 18:32:48;;;;;;;;;;;26.70;58.50;;;;;;5047399;27;83477;-39
2022/08/20 18:35:30;;;;;;;;;;;26.70;58.60;;;;;;5050588;27;81969;-40
2022/08/20 18:37:55;;;;;;;;;;;26.70;58.60;;;;;;5047791;27;84783;-46
2022/08/20 18:40:25;;;;;;;;;;;26.70;58.60;;;;;;5047486;27;81927;-41
2022/08/20 18:42:51;;;;;;;;;;;26.70;58.60;;;;;;5047462;27;84288;-39
2022/08/20 18:45:27;;;;;;;;;;;26.70;58.60;;;;;;5046821;28;83542;-41
2022/08/20 18:47:52;;;;;;;;;;;26.70;58.80;;;;;;5047650;27;82515;-41
2022/08/20 18:50:38;;;;;;;;;;;26.70;58.80;;;;;;5047343;27;81915;-40
2022/08/20 18:53:06;;;;;;;;;;;26.70;59.10;;;;;;5047069;27;82043;-42
2022/08/20 18:55:37;;;;;;;;;;;26.70;59.20;;;;;;5050167;27;82082;-41
2022/08/20 18:58:05;;;;;;;;;;;26.70;59.80;;;;;;5047092;28;84358;-39
2022/08/20 19:00:40;;;;;;;;;;;26.70;59.40;;;;;;5047248;28;81943;-46
2022/08/20 19:03:05;;;;;;;;;;;26.70;59.70;;;;;;5047806;27;82749;-39
2022/08/20 19:05:43;;;;;;;;;;;26.70;59.70;;;;;;5047148;27;82175;-40
2022/08/20 19:08:10;;;;;;;;;;;26.70;59.80;;;;;;5046995;27;82060;-43
2022/08/20 19:10:39;;;;;;;;;;;26.60;60.00;;;;;;5046677;27;82880;-41
2022/08/20 19:13:23;;;;;;;;;;;26.60;60.90;;;;;;5047065;28;82000;-40
2022/08/20 19:15:50;;;;;;;;;;;26.70;60.70;;;;;;5047201;27;82178;-40
2022/08/20 19:18:24;;;;;;;;;;;26.70;60.70;;;;;;5049475;27;81879;-40
2022/08/20 19:20:55;;;;;;;;;;;26.60;60.60;;;;;;5047024;28;82032;-38
2022/08/20 19:23:22;;;;;;;;;;;26.60;60.90;;;;;;5047075;27;82436;-43
2022/08/20 19:25:57;;;;;;;;;;;26.50;59.00;;;;;;5046714;28;83031;-40
2022/08/20 19:28:24;;;;;;;;;;;26.30;58.50;;;;;;5047383;28;81192;-39
2022/08/20 19:30:50;;;;;;;;;;;26.10;58.80;;;;;;5045954;27;83210;-40
2022/08/20 19:33:24;;;;;;;;;;;26.00;59.00;;;;;;5046543;27;83370;-39
2022/08/20 19:35:49;;;;;;;;;;;25.80;58.60;;;;;;5046368;27;82933;-39
2022/08/20 19:38:15;;;;;;;;;;;25.70;58.70;;;;;;5046751;27;83226;-39
2022/08/20 19:40:42;;;;;;;;;;;25.50;58.80;;;;;;5049261;27;82933;-39
2022/08/20 19:43:10;;;;;;;;;;;25.40;59.30;;;;;;5046185;27;82441;-40
2022/08/20 19:45:38;;;;;;;;;;;25.30;59.90;;;;;;5045728;27;84638;-39
2022/08/20 19:48:03;;;;;;;;;;;25.30;60.10;;;;;;5046601;27;82138;-39
2022/08/20 19:50:29;;;;;;;;;;;25.40;59.80;;;;;;5046519;27;81888;-39
2022/08/20 19:53:04;;;;;;;;;;;25.50;59.60;;;;;;5045402;28;85300;-39
2022/08/20 19:55:32;;;;;;;;;;;25.50;59.50;;;;;;5046486;27;82015;-39
2022/08/20 19:57:59;;;;;;;;;;;25.60;59.40;;;;;;5046310;27;82452;-39
2022/08/20 20:00:27;;;;;;;;;;;25.60;59.40;;;;;;5045579;28;83002;-39
2022/08/20 20:02:53;;;;;;;;;;;25.60;59.30;;;;;;5048645;27;81852;-39
2022/08/20 20:05:18;;;;;;;;;;;25.70;59.40;;;;;;5045969;27;82991;-39
2022/08/20 20:07:45;;;;;;;;;;;25.60;59.30;;;;;;5046047;28;82409;-39
2022/08/20 20:10:26;;;;;;;;;;;25.70;59.40;;;;;;5046121;27;82386;-39
2022/08/20 20:12:52;;;;;;;;;;;25.70;59.40;;;;;;5045901;27;82989;-39
2022/08/20 20:15:18;;;;;;;;;;;25.70;59.40;;;;;;5046191;28;82119;-39
2022/08/20 20:17:43;;;;;;;;;;;25.70;59.40;;;;;;5046432;27;82240;-39
2022/08/20 20:20:29;;;;;;;;;;;25.60;59.30;;;;;;5045737;28;82944;-39
2022/08/20 20:22:57;;;;;;;;;;;25.70;59.30;;;;;;5045606;27;81903;-39
2022/08/20 20:25:34;;;;;;;;;;;25.70;59.40;;;;;;5047866;27;83900;-39
2022/08/20 20:28:20;;;;;;;;;;;25.60;59.20;;;;;;5045863;27;82157;-39
2022/08/20 20:30:46;;;;;;;;;;;25.70;59.30;;;;;;5045277;28;81989;-39
2022/08/20 20:33:17;;;;;;;;;;;25.60;59.40;;;;;;5045462;27;83117;-39
2022/08/20 20:35:44;;;;;;;;;;;25.60;59.30;;;;;;5045657;27;82007;-39
2022/08/20 20:38:11;;;;;;;;;;;25.60;59.30;;;;;;5045495;27;83648;-39
2022/08/20 20:40:45;;;;;;;;;;;25.60;59.40;;;;;;5045565;28;82945;-39
2022/08/20 20:43:20;;;;;;;;;;;25.60;59.40;;;;;;5046460;27;81232;-39
2022/08/20 20:45:57;;;;;;;;;;;25.60;59.40;;;;;;5049452;27;81833;-39
2022/08/20 20:48:24;;;;;;;;;;;25.60;59.40;;;;;;5051516;27;84103;-40
2022/08/20 20:50:50;;;;;;;;;;;25.50;59.40;;;;;;5048087;28;82937;-39
2022/08/20 20:53:27;;;;;;;;;;;25.50;59.40;;;;;;5048929;28;83193;-39
2022/08/20 20:55:54;;;;;;;;;;;25.50;59.40;;;;;;5048962;28;81991;-39
2022/08/20 20:58:20;;;;;;;;;;;25.50;59.40;;;;;;5048653;27;83951;-39
2022/08/20 21:00:45;;;;;;;;;;;25.50;59.40;;;;;;5048871;28;83168;-39
2022/08/20 21:03:11;;;;;;;;;;;25.50;59.40;;;;;;5048640;28;81886;-39
2022/08/20 21:05:37;;;;;;;;;;;25.40;59.40;;;;;;5049040;27;82406;-39
2022/08/20 21:08:04;;;;;;;;;;;25.50;59.50;;;;;;5052088;27;82389;-39
2022/08/20 21:10:31;;;;;;;;;;;25.40;59.50;;;;;;5048917;27;81928;-39
2022/08/20 21:12:58;;;;;;;;;;;25.40;59.50;;;;;;5048584;27;82920;-39
2022/08/20 21:15:24;;;;;;;;;;;25.40;59.40;;;;;;5047579;27;82899;-39
2022/08/20 21:17:50;;;;;;;;;;;25.40;59.50;;;;;;5048757;28;83427;-39
2022/08/20 21:20:16;;;;;;;;;;;25.40;59.50;;;;;;5048474;28;82965;-39
2022/08/20 21:22:42;;;;;;;;;;;25.30;59.50;;;;;;5048155;27;82016;-39
2022/08/20 21:25:07;;;;;;;;;;;25.40;59.50;;;;;;5048794;28;82248;-39
2022/08/20 21:27:33;;;;;;;;;;;25.30;59.50;;;;;;5048403;27;82943;-39
2022/08/20 21:29:59;;;;;;;;;;;25.30;59.40;;;;;;5051062;27;82054;-39
2022/08/20 21:32:24;;;;;;;;;;;25.30;59.50;;;;;;5049100;27;82240;-39
2022/08/20 21:34:50;;;;;;;;;;;25.30;59.60;;;;;;5048730;28;82081;-39
2022/08/20 21:37:16;;;;;;;;;;;25.30;59.60;;;;;;5048421;27;83670;-39
2022/08/20 21:39:42;;;;;;;;;;;25.30;59.60;;;;;;5048016;28;84118;-39
2022/08/20 21:42:09;;;;;;;;;;;25.30;59.70;;;;;;5048553;28;82090;-39
2022/08/20 21:44:35;;;;;;;;;;;25.30;59.70;;;;;;5048283;27;84010;-39
2022/08/20 21:47:01;;;;;;;;;;;25.20;59.60;;;;;;5048296;27;83323;-39
2022/08/20 21:49:28;;;;;;;;;;;25.30;59.70;;;;;;5048095;27;82099;-39
2022/08/20 21:51:54;;;;;;;;;;;25.20;59.60;;;;;;5050868;28;82323;-39
2022/08/20 21:54:20;;;;;;;;;;;25.20;59.60;;;;;;5047964;27;81930;-39
2022/08/20 21:56:49;;;;;;;;;;;25.20;59.60;;;;;;5048689;28;82448;-39
2022/08/20 21:59:15;;;;;;;;;;;25.20;59.60;;;;;;5047857;27;82135;-39
2022/08/20 22:01:40;;;;;;;;;;;25.20;59.70;;;;;;5047916;27;82091;-39
2022/08/20 22:04:06;;;;;;;;;;;25.20;59.70;;;;;;5047691;28;82763;-39
2022/08/20 22:06:32;;;;;;;;;;;25.20;59.70;;;;;;5048135;27;82930;-39
2022/08/20 22:08:57;;;;;;;;;;;25.10;59.70;;;;;;5048322;27;81800;-39
2022/08/20 22:11:23;;;;;;;;;;;25.10;59.70;;;;;;5048233;27;81812;-39
2022/08/20 22:13:48;;;;;;;;;;;25.10;59.80;;;;;;5050298;28;83147;-39
2022/08/20 22:16:16;;;;;;;;;;;25.10;59.80;;;;;;5048312;27;83126;-39
2022/08/20 22:18:41;;;;;;;;;;;25.10;59.90;;;;;;5047943;27;82923;-39
2022/08/20 22:21:10;;;;;;;;;;;25.10;59.80;;;;;;5048053;28;81201;-39
2022/08/20 22:23:38;;;;;;;;;;;25.10;59.90;;;;;;5047943;27;82007;-39
2022/08/20 22:26:05;;;;;;;;;;;25.10;59.80;;;;;;5047445;27;84389;-39
2022/08/20 22:28:31;;;;;;;;;;;25.00;59.80;;;;;;5046764;27;83090;-39
2022/08/20 22:30:57;;;;;;;;;;;25.00;59.80;;;;;;5047823;27;83130;-39
2022/08/20 22:33:22;;;;;;;;;;;25.00;59.90;;;;;;5047441;27;83804;-39
2022/08/20 22:35:49;;;;;;;;;;;25.00;59.90;;;;;;5050628;28;81908;-39
2022/08/20 22:38:15;;;;;;;;;;;25.00;59.90;;;;;;5047581;28;83122;-39
2022/08/20 22:40:41;;;;;;;;;;;24.90;59.90;;;;;;5047642;27;82040;-39
2022/08/20 22:43:06;;;;;;;;;;;24.90;60.00;;;;;;5047271;27;82470;-39
2022/08/20 22:45:32;;;;;;;;;;;24.90;60.00;;;;;;5047951;27;81869;-39
2022/08/20 22:47:58;;;;;;;;;;;24.90;60.00;;;;;;5047198;27;81979;-39
2022/08/20 22:50:24;;;;;;;;;;;24.90;60.00;;;;;;5047464;28;82424;-39
2022/08/20 22:52:49;;;;;;;;;;;24.90;60.10;;;;;;5046809;27;84125;-39
2022/08/20 22:55:15;;;;;;;;;;;24.90;60.00;;;;;;5047566;27;81942;-39
2022/08/20 22:57:40;;;;;;;;;;;24.90;60.00;;;;;;5049847;28;82633;-39
2022/08/20 23:00:08;;;;;;;;;;;24.80;60.00;;;;;;5047362;28;81869;-39
2022/08/20 23:02:34;;;;;;;;;;;24.80;60.10;;;;;;5047055;27;84013;-39
2022/08/20 23:05:00;;;;;;;;;;;24.80;60.10;;;;;;5046922;28;82890;-39
2022/08/20 23:07:25;;;;;;;;;;;24.80;60.10;;;;;;5046396;27;81942;-39
2022/08/20 23:09:51;;;;;;;;;;;24.80;60.10;;;;;;5047712;28;82506;-39
2022/08/20 23:12:16;;;;;;;;;;;24.80;60.20;;;;;;5047056;28;83013;-39
2022/08/20 23:14:42;;;;;;;;;;;24.70;60.10;;;;;;5047036;27;81964;-39
2022/08/20 23:17:10;;;;;;;;;;;24.70;60.20;;;;;;5049242;28;82858;-39
2022/08/20 23:19:36;;;;;;;;;;;24.70;60.20;;;;;;5046913;27;81949;-39
2022/08/20 23:22:02;;;;;;;;;;;24.70;60.20;;;;;;5046345;27;82327;-39
2022/08/20 23:24:28;;;;;;;;;;;24.70;60.20;;;;;;5046922;27;83060;-39
2022/08/20 23:26:53;;;;;;;;;;;24.70;60.20;;;;;;5046980;27;82869;-39
2022/08/20 23:29:19;;;;;;;;;;;24.60;60.30;;;;;;5046970;27;81798;-39
2022/08/20 23:31:45;;;;;;;;;;;24.60;60.20;;;;;;5046718;27;83425;-39
2022/08/20 23:34:10;;;;;;;;;;;24.60;60.20;;;;;;5047473;28;81226;-39
2022/08/20 23:36:36;;;;;;;;;;;24.60;60.30;;;;;;5046790;28;81768;-39
2022/08/20 23:39:02;;;;;;;;;;;24.60;60.30;;;;;;5049331;27;82639;-39
2022/08/20 23:41:28;;;;;;;;;;;24.60;60.30;;;;;;5046056;28;82969;-39
2022/08/20 23:43:53;;;;;;;;;;;24.50;60.30;;;;;;5046042;27;84548;-39
2022/08/20 23:46:19;;;;;;;;;;;24.60;60.30;;;;;;5046979;28;81995;-39
2022/08/20 23:48:45;;;;;;;;;;;24.50;60.30;;;;;;5046723;27;82268;-39
2022/08/20 23:51:10;;;;;;;;;;;24.50;60.40;;;;;;5046137;28;83727;-39
2022/08/20 23:53:36;;;;;;;;;;;24.50;60.40;;;;;;5046465;28;81956;-39
2022/08/20 23:56:02;;;;;;;;;;;24.50;60.40;;;;;;5046252;27;83041;-39
2022/08/20 23:58:27;;;;;;;;;;;24.40;60.40;;;;;;5046478;27;82345;-39
